Time;durP1;ratioP1;P1;durP2;ratioP2;P2;SDS_P1;SDS_P2;PMS_P1;PMS_P2;Temp;Humidity;BMP_temperature;BMP_pressure;BME280_temperature;BME280_humidity;BME280_pressure;Samples;Min_cycle;Max_cycle;Signal;HPM_P1;HPM_P2
2023/02/07 00:00:52;;;;;;;53.23;26.47;;;1.80;99.90;;;;;;5009368;28;20171;-82
2023/02/07 00:03:17;;;;;;;54.38;28.27;;;1.80;99.90;;;;;;5009986;28;20352;-82
2023/02/07 00:05:43;;;;;;;49.03;26.17;;;1.80;99.90;;;;;;5004784;28;20440;-82
2023/02/07 00:08:09;;;;;;;58.90;29.47;;;1.80;99.90;;;;;;5005973;28;20049;-82
2023/02/07 00:10:35;;;;;;;64.83;31.10;;;1.80;99.90;;;;;;4994644;28;20391;-82
2023/02/07 00:13:01;;;;;;;62.73;31.00;;;1.80;99.90;;;;;;5000364;28;20127;-82
2023/02/07 00:15:26;;;;;;;52.10;28.17;;;1.80;99.90;;;;;;4977211;28;20139;-74
2023/02/07 00:17:52;;;;;;;49.92;27.73;;;1.80;99.90;;;;;;5010399;28;20041;-74
2023/02/07 00:20:24;;;;;;;62.28;31.83;;;1.70;99.90;;;;;;5009218;28;20052;-74
2023/02/07 00:22:50;;;;;;;61.83;35.57;;;1.70;99.90;;;;;;5010034;28;20373;-73
2023/02/07 00:25:17;;;;;;;76.23;36.77;;;1.80;99.90;;;;;;5024142;28;20098;-74
2023/02/07 00:27:43;;;;;;;56.97;31.93;;;1.70;99.90;;;;;;5020845;28;20042;-74
2023/02/07 00:30:12;;;;;;;66.17;35.67;;;1.80;99.90;;;;;;4979203;28;20048;-74
2023/02/07 00:32:38;;;;;;;67.40;36.53;;;1.80;99.90;;;;;;5009682;28;20041;-74
2023/02/07 00:35:04;;;;;;;72.32;35.85;;;1.80;99.90;;;;;;5009761;28;20045;-74
2023/02/07 00:37:30;;;;;;;76.57;38.30;;;1.70;99.90;;;;;;5023636;28;20053;-74
2023/02/07 00:39:56;;;;;;;76.00;37.73;;;1.70;99.90;;;;;;4991874;28;20083;-73
2023/02/07 00:42:22;;;;;;;71.67;38.23;;;1.70;99.90;;;;;;5020592;28;20122;-73
2023/02/07 00:44:47;;;;;;;76.07;38.77;;;1.70;99.90;;;;;;5007209;28;20068;-74
2023/02/07 00:47:13;;;;;;;68.77;37.20;;;1.70;99.90;;;;;;4974688;28;20369;-74
2023/02/07 00:49:39;;;;;;;67.57;36.90;;;1.70;99.90;;;;;;5009935;28;20432;-74
2023/02/07 00:52:05;;;;;;;73.50;38.43;;;1.70;99.90;;;;;;5023103;28;20044;-73
2023/02/07 00:54:30;;;;;;;72.83;37.53;;;1.80;99.90;;;;;;5009080;28;20128;-74
2023/02/07 00:56:56;;;;;;;69.20;37.43;;;1.70;99.90;;;;;;4991937;28;20053;-74
2023/02/07 00:59:22;;;;;;;77.67;41.13;;;1.60;99.90;;;;;;5019369;28;20071;-73
2023/02/07 01:01:48;;;;;;;78.00;40.80;;;1.70;99.90;;;;;;4994673;28;20037;-74
2023/02/07 01:04:13;;;;;;;78.37;40.00;;;1.70;99.90;;;;;;5006039;28;20451;-82
2023/02/07 01:06:39;;;;;;;82.50;41.03;;;1.70;99.90;;;;;;5009029;28;20037;-81
2023/02/07 01:09:05;;;;;;;80.63;41.33;;;1.70;99.90;;;;;;4991587;28;20099;-82
2023/02/07 01:11:31;;;;;;;73.60;42.65;;;1.70;99.90;;;;;;5013611;28;20041;-82
2023/02/07 01:13:59;;;;;;;76.57;42.50;;;1.70;99.90;;;;;;5001419;28;20049;-82
2023/02/07 01:16:31;;;;;;;78.73;41.93;;;1.70;99.90;;;;;;4986243;28;20037;-82
2023/02/07 01:19:00;;;;;;;74.60;40.63;;;1.70;99.90;;;;;;5023913;28;20044;-82
2023/02/07 01:21:26;;;;;;;73.23;39.63;;;1.60;99.90;;;;;;5001785;28;20334;-82
2023/02/07 01:23:56;;;;;;;71.47;40.10;;;1.70;99.90;;;;;;4990859;28;20625;-82
2023/02/07 01:26:26;;;;;;;71.43;40.53;;;1.60;99.90;;;;;;5000618;28;20198;-82
2023/02/07 01:28:53;;;;;;;65.15;39.40;;;1.60;99.90;;;;;;5010553;28;20293;-82
2023/02/07 01:31:21;;;;;;;57.57;34.63;;;1.50;99.90;;;;;;5004506;28;20045;-82
2023/02/07 01:33:47;;;;;;;65.53;37.27;;;1.50;99.90;;;;;;5000400;28;20057;-82
2023/02/07 01:36:15;;;;;;;61.13;36.67;;;1.40;99.90;;;;;;5002146;28;20068;-82
2023/02/07 01:38:41;;;;;;;56.60;33.93;;;1.40;99.90;;;;;;5017206;28;20110;-82
2023/02/07 01:41:08;;;;;;;51.67;34.43;;;1.40;99.90;;;;;;4981899;28;20041;-74
2023/02/07 01:43:51;;;;;;;51.23;32.53;;;1.30;99.90;;;;;;5001067;28;20102;-74
2023/02/07 01:46:17;;;;;;;79.33;40.70;;;1.30;99.90;;;;;;5000231;28;20485;-74
2023/02/07 01:48:42;;;;;;;55.90;34.70;;;1.20;99.90;;;;;;4966387;28;20057;-82
2023/02/07 01:51:08;;;;;;;43.97;31.63;;;1.20;99.90;;;;;;4984965;28;20128;-82
2023/02/07 01:53:37;;;;;;;59.13;34.60;;;1.10;99.90;;;;;;4987107;28;20098;-82
2023/02/07 01:56:08;;;;;;;93.33;43.33;;;1.10;99.90;;;;;;5016608;28;20674;-82
2023/02/07 01:58:37;;;;;;;50.47;31.73;;;1.00;99.90;;;;;;4997317;28;20055;-82
2023/02/07 02:01:09;;;;;;;44.53;30.70;;;1.00;99.90;;;;;;4984897;28;20056;-81
2023/02/07 02:03:40;;;;;;;61.90;33.37;;;1.00;99.90;;;;;;5015403;28;20041;-81
2023/02/07 02:06:06;;;;;;;107.67;45.80;;;0.90;99.90;;;;;;5001827;28;20052;-81
2023/02/07 02:08:32;;;;;;;49.07;31.53;;;0.90;99.90;;;;;;4972879;28;20127;-81
2023/02/07 02:11:10;;;;;;;74.83;37.57;;;0.80;99.90;;;;;;4985437;28;20056;-81
2023/02/07 02:13:40;;;;;;;53.57;31.93;;;0.80;99.90;;;;;;5016521;28;20048;-82
2023/02/07 02:16:21;;;;;;;72.85;37.45;;;0.80;99.90;;;;;;5003459;28;20057;-81
2023/02/07 02:18:52;;;;;;;42.80;29.40;;;0.70;99.90;;;;;;4999381;28;20549;-74
2023/02/07 02:21:59;;;;;;;53.60;34.00;;;0.70;99.90;;;;;;5003085;28;20488;-73
2023/02/07 02:24:49;;;;;;;42.57;27.27;;;0.60;99.90;;;;;;5001049;28;20041;-74
2023/02/07 02:27:49;;;;;;;41.00;29.05;;;0.50;99.90;;;;;;5014220;28;20117;-73
2023/02/07 02:30:33;;;;;;;78.27;40.47;;;0.50;99.90;;;;;;5019712;28;20075;-73
2023/02/07 02:33:37;;;;;;;58.30;35.93;;;0.40;99.90;;;;;;5001702;28;20041;-74
2023/02/07 02:36:20;;;;;;;114.40;38.60;;;0.40;99.90;;;;;;4992032;28;20049;-74
2023/02/07 02:39:22;;;;;;;62.73;34.27;;;0.40;99.90;;;;;;5022186;28;20053;-74
2023/02/07 02:41:58;;;;;;;97.10;33.37;;;0.30;99.90;;;;;;5019142;28;20045;-74
2023/02/07 02:44:39;;;;;;;48.43;33.03;;;0.20;99.90;;;;;;5016268;28;20045;-74
2023/02/07 02:47:04;;;;;;;117.47;38.55;;;0.20;99.90;;;;;;5020376;28;20554;-74
2023/02/07 02:49:33;;;;;;;73.20;40.13;;;0.10;99.90;;;;;;4987959;28;20045;-81
2023/02/07 02:51:59;;;;;;;53.00;33.60;;;0.20;99.90;;;;;;5020449;28;20080;-81
2023/02/07 02:54:32;;;;;;;62.73;37.50;;;0.10;99.90;;;;;;5020276;28;20069;-81
2023/02/07 02:57:26;;;;;;;69.37;39.27;;;0.00;99.90;;;;;;5007558;28;20655;-81
2023/02/07 02:59:54;;;;;;;49.17;33.00;;;0.00;99.90;;;;;;4990495;28;20105;-81
2023/02/07 03:02:51;;;;;;;46.90;30.20;;;0.00;99.90;;;;;;5012178;28;20049;-81
2023/02/07 03:05:49;;;;;;;52.87;32.87;;;0.00;99.90;;;;;;4998068;28;20466;-81
2023/02/07 03:08:29;;;;;;;67.17;37.33;;;-0.10;99.90;;;;;;5022085;28;20775;-81
2023/02/07 03:11:06;;;;;;;51.60;32.22;;;-0.20;99.90;;;;;;5012916;28;20492;-81
2023/02/07 03:14:30;;;;;;;56.37;33.67;;;-0.20;99.90;;;;;;5019744;28;20597;-81
2023/02/07 03:17:03;;;;;;;63.23;35.43;;;-0.20;99.90;;;;;;4992692;28;20460;-81
2023/02/07 03:19:35;;;;;;;51.90;33.47;;;-0.30;99.90;;;;;;5015710;28;20764;-81
2023/02/07 03:22:10;;;;;;;45.57;31.17;;;-0.20;99.90;;;;;;5010338;28;20419;-80
2023/02/07 03:24:45;;;;;;;62.13;36.73;;;-0.30;99.90;;;;;;5010387;28;20458;-80
2023/02/07 03:27:15;;;;;;;68.53;37.43;;;-0.30;99.90;;;;;;5021388;28;20041;-81
2023/02/07 03:29:45;;;;;;;66.32;37.20;;;-0.30;99.90;;;;;;5018712;28;20041;-81
2023/02/07 03:32:13;;;;;;;67.47;40.20;;;-0.40;99.90;;;;;;5002235;28;20136;-74
2023/02/07 03:34:45;;;;;;;57.87;34.53;;;-0.40;99.90;;;;;;5018193;28;20077;-75
2023/02/07 03:37:30;;;;;;;60.33;35.97;;;-0.40;99.90;;;;;;5025923;28;20097;-81
2023/02/07 03:39:56;;;;;;;55.80;35.60;;;-0.40;99.90;;;;;;4999086;28;20046;-80
2023/02/07 03:42:33;;;;;;;51.33;34.33;;;-0.40;99.90;;;;;;4992759;28;20081;-81
2023/02/07 03:45:00;;;;;;;55.53;35.27;;;-0.50;99.90;;;;;;5018251;28;20060;-80
2023/02/07 03:47:27;;;;;;;48.03;33.83;;;-0.50;99.90;;;;;;5010230;28;20391;-80
2023/02/07 03:49:53;;;;;;;51.47;33.83;;;-0.40;99.90;;;;;;5005197;28;20120;-80
2023/02/07 03:52:18;;;;;;;51.50;34.03;;;-0.40;99.90;;;;;;5012506;28;20040;-79
2023/02/07 03:54:44;;;;;;;46.80;33.90;;;-0.40;99.90;;;;;;5003209;28;20041;-80
2023/02/07 03:57:10;;;;;;;48.87;32.80;;;-0.50;99.90;;;;;;4998371;28;20563;-79
2023/02/07 03:59:36;;;;;;;52.80;33.90;;;-0.50;99.90;;;;;;5001827;28;20033;-79
2023/02/07 04:02:02;;;;;;;47.07;32.23;;;-0.50;99.90;;;;;;5018199;28;20076;-80
2023/02/07 04:04:28;;;;;;;46.03;31.80;;;-0.50;99.90;;;;;;5007594;28;20033;-79
2023/02/07 04:06:54;;;;;;;47.10;32.33;;;-0.50;99.90;;;;;;5000425;28;20148;-79
2023/02/07 04:09:20;;;;;;;49.70;32.87;;;-0.50;99.90;;;;;;5008050;28;20562;-80
2023/02/07 04:11:50;;;;;;;51.70;34.50;;;-0.50;99.90;;;;;;5009427;28;20037;-79
2023/02/07 04:14:18;;;;;;;51.75;35.17;;;-0.50;99.90;;;;;;5019354;28;20037;-80
2023/02/07 04:16:45;;;;;;;54.53;35.37;;;-0.60;99.90;;;;;;5021626;28;20041;-79
2023/02/07 04:19:11;;;;;;;46.83;32.13;;;-0.60;99.90;;;;;;4987595;28;20235;-79
2023/02/07 04:21:37;;;;;;;40.00;29.97;;;-0.50;99.90;;;;;;5015949;28;20041;-79
2023/02/07 04:24:03;;;;;;;48.57;33.10;;;-0.60;99.90;;;;;;4993880;28;20044;-79
2023/02/07 04:26:29;;;;;;;51.67;34.10;;;-0.60;99.90;;;;;;5024236;28;20085;-79
2023/02/07 04:28:57;;;;;;;47.07;31.13;;;-0.70;99.90;;;;;;5004452;28;20114;-79
2023/02/07 04:31:23;;;;;;;49.83;33.30;;;-0.70;99.90;;;;;;4999159;28;20047;-80
2023/02/07 04:33:49;;;;;;;39.57;29.87;;;-0.70;99.90;;;;;;5001032;28;20045;-79
2023/02/07 04:36:18;;;;;;;41.70;30.00;;;-0.70;99.90;;;;;;4992501;28;20048;-80
2023/02/07 04:38:43;;;;;;;45.07;31.47;;;-0.70;99.90;;;;;;4990682;28;20168;-79
2023/02/07 04:41:09;;;;;;;42.60;30.57;;;-0.70;99.90;;;;;;5014559;28;20140;-79
2023/02/07 04:43:36;;;;;;;50.40;34.33;;;-0.70;99.90;;;;;;5000678;28;20327;-79
2023/02/07 04:46:03;;;;;;;49.93;35.47;;;-0.80;99.90;;;;;;5002999;28;20508;-80
2023/02/07 04:48:30;;;;;;;51.07;34.43;;;-0.80;99.90;;;;;;4983069;28;20103;-74
2023/02/07 04:50:55;;;;;;;43.43;30.73;;;-0.80;99.90;;;;;;5026163;28;20045;-74
2023/02/07 04:53:21;;;;;;;47.93;32.77;;;-0.80;99.90;;;;;;5004261;28;20550;-74
2023/02/07 04:55:52;;;;;;;54.47;36.33;;;-0.80;99.90;;;;;;5010294;28;20037;-74
2023/02/07 04:58:19;;;;;;;61.73;38.67;;;-0.80;99.90;;;;;;5016665;28;20045;-74
2023/02/07 05:00:45;;;;;;;56.00;37.00;;;-0.90;99.90;;;;;;5010068;28;20056;-74
2023/02/07 05:03:11;;;;;;;57.80;37.87;;;-0.90;99.90;;;;;;5008386;28;20045;-74
2023/02/07 05:05:42;;;;;;;58.13;36.20;;;-1.00;99.90;;;;;;5017232;28;20045;-74
2023/02/07 05:08:08;;;;;;;;;;;-1.00;99.90;;;;;;5013163;28;20049;-74
2023/02/07 05:10:34;;;;;;;53.27;36.07;;;-1.00;99.90;;;;;;5008933;28;20394;-74
2023/02/07 05:13:00;;;;;;;46.73;34.27;;;-1.10;99.90;;;;;;5024267;28;20045;-79
2023/02/07 05:15:26;;;;;;;48.37;35.07;;;-1.10;99.90;;;;;;5022886;28;20053;-79
2023/02/07 05:17:52;;;;;;;49.70;35.03;;;-1.20;99.90;;;;;;5009345;28;20045;-78
2023/02/07 05:20:19;;;;;;;54.77;38.37;;;-1.10;99.90;;;;;;5008336;28;20113;-79
2023/02/07 05:22:45;;;;;;;54.43;38.20;;;-1.10;99.90;;;;;;5010774;28;20048;-79
2023/02/07 05:25:11;;;;;;;61.00;38.83;;;-1.20;99.90;;;;;;5006034;28;20041;-79
2023/02/07 05:27:37;;;;;;;56.40;37.43;;;-1.20;99.90;;;;;;5009001;28;20111;-79
2023/02/07 05:30:04;;;;;;;61.67;40.20;;;-1.20;99.90;;;;;;5019732;28;20499;-79
2023/02/07 05:35:15;;;;;;;59.67;39.23;;;-1.20;99.90;;;;;;5016590;28;20389;-79
2023/02/07 05:37:41;;;;;;;57.77;39.70;;;-1.30;99.90;;;;;;5000964;28;20137;-79
2023/02/07 05:40:07;;;;;;;57.30;38.87;;;-1.30;99.90;;;;;;5013948;28;20136;-79
2023/02/07 05:42:33;;;;;;;59.87;38.20;;;-1.30;99.90;;;;;;4995756;28;20489;-80
2023/02/07 05:44:58;;;;;;;58.80;38.20;;;-1.30;99.90;;;;;;5002407;28;20057;-79
2023/02/07 05:47:24;;;;;;;62.70;41.47;;;-1.40;99.90;;;;;;4987456;28;20103;-79
2023/02/07 05:49:50;;;;;;;53.60;36.13;;;-1.40;99.90;;;;;;5026074;28;20086;-80
2023/02/07 05:52:16;;;;;;;58.20;40.23;;;-1.40;99.90;;;;;;5009976;28;20052;-80
2023/02/07 05:54:41;;;;;;;57.30;38.53;;;-1.40;99.90;;;;;;5004693;28;20239;-79
2023/02/07 05:57:07;;;;;;;53.73;37.17;;;-1.40;99.90;;;;;;4998539;28;20160;-79
2023/02/07 05:59:33;;;;;;;49.47;35.93;;;-1.40;99.90;;;;;;5004953;28;20067;-80
2023/02/07 06:01:59;;;;;;;51.17;36.57;;;-1.30;99.90;;;;;;4998178;28;20382;-80
2023/02/07 06:04:25;;;;;;;52.17;37.23;;;-1.30;99.90;;;;;;5003502;28;20045;-75
2023/02/07 06:06:51;;;;;;;49.50;35.17;;;-1.40;99.90;;;;;;5003004;28;20056;-74
2023/02/07 06:09:16;;;;;;;45.63;35.00;;;-1.40;99.90;;;;;;5022867;28;20041;-74
2023/02/07 06:11:42;;;;;;;42.57;33.63;;;-1.40;99.90;;;;;;5014233;28;20051;-79
2023/02/07 06:14:08;;;;;;;53.13;37.17;;;-1.40;99.90;;;;;;5002316;28;20359;-80
2023/02/07 06:16:34;;;;;;;43.37;32.43;;;-1.40;99.90;;;;;;5013802;28;20038;-80
2023/02/07 06:19:00;;;;;;;41.50;32.97;;;-1.40;99.90;;;;;;5003171;28;21365;-79
2023/02/07 06:21:26;;;;;;;47.33;34.13;;;-1.30;99.90;;;;;;4989093;28;20069;-79
2023/02/07 06:23:52;;;;;;;48.43;35.83;;;-1.40;99.90;;;;;;5000860;28;20042;-79
2023/02/07 06:26:18;;;;;;;49.70;36.03;;;-1.40;99.90;;;;;;5004988;28;20095;-79
2023/02/07 06:28:43;;;;;;;42.33;33.20;;;-1.40;99.90;;;;;;4983547;28;20041;-79
2023/02/07 06:31:09;;;;;;;40.93;32.37;;;-1.40;99.90;;;;;;4981599;28;20060;-79
2023/02/07 06:33:35;;;;;;;46.23;33.53;;;-1.40;99.90;;;;;;4999050;28;20135;-79
2023/02/07 06:36:01;;;;;;;47.10;35.63;;;-1.50;99.90;;;;;;5013857;28;20522;-79
2023/02/07 06:38:26;;;;;;;43.20;32.13;;;-1.50;99.90;;;;;;4998346;28;20566;-79
2023/02/07 06:40:52;;;;;;;50.63;33.73;;;-1.50;99.90;;;;;;5020427;28;20403;-79
2023/02/07 06:43:18;;;;;;;43.80;32.97;;;-1.50;99.90;;;;;;5001539;28;20040;-80
2023/02/07 06:45:44;;;;;;;45.00;33.37;;;-1.50;99.90;;;;;;5028209;28;20048;-78
2023/02/07 06:48:10;;;;;;;48.33;35.07;;;-1.50;99.90;;;;;;4984463;28;20520;-79
2023/02/07 06:50:36;;;;;;;48.80;35.17;;;-1.50;99.90;;;;;;5022013;28;20052;-78
2023/02/07 06:53:05;;;;;;;57.93;38.60;;;-1.50;99.90;;;;;;4998513;28;20545;-78
2023/02/07 06:55:34;;;;;;;53.50;39.30;;;-1.50;99.90;;;;;;5021240;28;20361;-79
2023/02/07 06:58:00;;;;;;;53.77;38.73;;;-1.50;99.90;;;;;;5030860;28;20081;-78
2023/02/07 07:00:26;;;;;;;50.10;37.50;;;-1.60;99.90;;;;;;4999374;28;20068;-78
2023/02/07 07:02:52;;;;;;;53.40;38.77;;;-1.50;99.90;;;;;;5022567;28;20083;-78
2023/02/07 07:05:18;;;;;;;61.47;41.23;;;-1.50;99.90;;;;;;5004801;28;20814;-78
2023/02/07 07:07:44;;;;;;;58.20;40.90;;;-1.60;99.90;;;;;;5033881;28;20040;-78
2023/02/07 07:10:10;;;;;;;60.30;42.97;;;-1.60;99.90;;;;;;5005227;28;20140;-78
2023/02/07 07:12:36;;;;;;;64.23;44.97;;;-1.60;99.90;;;;;;5017979;28;20131;-78
2023/02/07 07:15:02;;;;;;;62.33;44.00;;;-1.60;99.90;;;;;;5037142;28;20044;-78
2023/02/07 07:17:27;;;;;;;56.77;43.67;;;-1.60;99.90;;;;;;5042091;28;20036;-78
2023/02/07 07:19:53;;;;;;;60.53;44.27;;;-1.50;99.90;;;;;;5022353;28;20434;-78
2023/02/07 07:22:22;;;;;;;62.00;43.67;;;-1.60;99.90;;;;;;5024487;28;20766;-78
2023/02/07 07:24:49;;;;;;;61.47;45.00;;;-1.60;99.90;;;;;;5043561;28;20068;-77
2023/02/07 07:27:14;;;;;;;62.93;46.07;;;-1.60;99.90;;;;;;5037643;28;20052;-78
2023/02/07 07:29:44;;;;;;;58.90;43.97;;;-1.40;99.90;;;;;;5010461;28;20040;-78
2023/02/07 07:32:12;;;;;;;61.53;44.97;;;-1.40;99.90;;;;;;5023691;28;20041;-78
2023/02/07 07:34:41;;;;;;;58.53;44.20;;;-1.30;99.90;;;;;;5008146;28;20095;-78
2023/02/07 07:37:07;;;;;;;58.20;43.97;;;-1.30;99.90;;;;;;5024862;28;20095;-77
2023/02/07 07:39:33;;;;;;;59.63;42.80;;;-1.20;99.90;;;;;;5007871;28;20076;-78
2023/02/07 07:41:59;;;;;;;60.07;44.77;;;-1.20;99.90;;;;;;5041356;28;20051;-78
2023/02/07 07:44:24;;;;;;;54.93;42.30;;;-1.10;99.90;;;;;;5040810;28;20445;-77
2023/02/07 07:46:51;;;;;;;57.00;41.87;;;-1.10;99.90;;;;;;5041155;28;20072;-77
2023/02/07 07:49:17;;;;;;;56.43;41.87;;;-1.00;99.90;;;;;;5043320;28;20131;-78
2023/02/07 07:51:43;;;;;;;54.50;42.63;;;-1.00;99.90;;;;;;5028419;28;20127;-77
2023/02/07 07:54:09;;;;;;;55.87;43.30;;;-1.00;99.90;;;;;;5024985;28;20048;-78
2023/02/07 07:56:37;;;;;;;52.10;40.87;;;-1.00;99.90;;;;;;5009043;28;20036;-77
2023/02/07 07:59:03;;;;;;;55.03;42.43;;;-0.90;99.90;;;;;;5007962;28;20033;-78
2023/02/07 08:01:29;;;;;;;52.80;40.93;;;-0.90;99.90;;;;;;5010007;28;20059;-78
2023/02/07 08:03:54;;;;;;;57.07;41.70;;;-0.90;99.90;;;;;;5033833;28;20056;-78
2023/02/07 08:06:20;;;;;;;51.07;41.53;;;-0.90;99.90;;;;;;5011291;28;20119;-78
2023/02/07 08:08:46;;;;;;;53.90;40.13;;;-0.90;99.90;;;;;;5019948;28;20133;-78
2023/02/07 08:11:12;;;;;;;48.87;39.93;;;-0.80;99.90;;;;;;5011919;28;20455;-77
2023/02/07 08:13:37;;;;;;;47.20;38.30;;;-0.90;99.90;;;;;;5012871;28;20523;-79
2023/02/07 08:16:10;;;;;;;51.10;39.67;;;-0.80;99.90;;;;;;5026110;28;20404;-79
2023/02/07 08:18:36;;;;;;;48.27;38.43;;;-0.80;99.90;;;;;;5036048;28;20041;-79
2023/02/07 08:21:03;;;;;;;47.93;39.17;;;-0.70;99.90;;;;;;5029515;28;20065;-79
2023/02/07 08:23:28;;;;;;;46.87;38.23;;;-0.70;99.90;;;;;;5045297;28;20110;-79
2023/02/07 08:25:54;;;;;;;45.93;38.50;;;-0.70;99.90;;;;;;5027224;28;20040;-77
2023/02/07 08:28:20;;;;;;;45.67;37.27;;;-0.70;99.90;;;;;;5040500;28;20128;-78
2023/02/07 08:30:47;;;;;;;46.00;38.33;;;-0.60;99.90;;;;;;5023851;28;20075;-78
2023/02/07 08:33:14;;;;;;;45.27;37.07;;;-0.60;99.90;;;;;;5042116;28;20068;-78
2023/02/07 08:35:40;;;;;;;46.97;37.27;;;-0.60;99.90;;;;;;5024938;28;20951;-78
2023/02/07 08:38:06;;;;;;;45.97;37.53;;;-0.60;99.90;;;;;;5025912;28;20048;-78
2023/02/07 08:40:32;;;;;;;46.20;38.23;;;-0.50;99.90;;;;;;5011062;28;20045;-78
2023/02/07 08:42:59;;;;;;;44.83;36.87;;;-0.50;99.90;;;;;;5027031;28;20142;-78
2023/02/07 08:45:25;;;;;;;41.93;35.83;;;-0.50;99.90;;;;;;5036043;28;20051;-78
2023/02/07 08:47:50;;;;;;;42.50;34.47;;;-0.40;99.90;;;;;;5043578;28;20419;-78
2023/02/07 08:50:17;;;;;;;41.63;36.10;;;-0.40;99.90;;;;;;5013387;28;20048;-78
2023/02/07 08:52:44;;;;;;;43.93;37.13;;;-0.30;99.90;;;;;;5046886;28;20052;-78
2023/02/07 08:55:10;;;;;;;40.13;34.53;;;-0.30;99.90;;;;;;5029678;28;20075;-78
2023/02/07 08:57:37;;;;;;;36.40;32.40;;;-0.20;99.90;;;;;;5026453;28;20499;-78
2023/02/07 09:00:05;;;;;;;42.93;34.60;;;-0.20;99.90;;;;;;5037453;28;20056;-78
2023/02/07 09:02:31;;;;;;;39.07;34.80;;;-0.10;99.90;;;;;;5024823;28;20055;-78
2023/02/07 09:04:57;;;;;;;36.97;32.10;;;-0.10;99.90;;;;;;5023874;28;20036;-78
2023/02/07 09:07:23;;;;;;;38.30;33.77;;;0.00;99.90;;;;;;5019425;28;20045;-78
2023/02/07 09:09:49;;;;;;;38.63;33.43;;;0.10;99.90;;;;;;5036185;28;20649;-78
2023/02/07 09:12:15;;;;;;;39.67;33.50;;;0.10;99.90;;;;;;5044768;28;20495;-79
2023/02/07 09:14:41;;;;;;;34.90;31.13;;;0.00;99.90;;;;;;5023926;28;20440;-78
2023/02/07 09:17:07;;;;;;;38.37;34.27;;;0.10;99.90;;;;;;5009917;28;20067;-78
2023/02/07 09:19:35;;;;;;;35.30;30.40;;;0.20;99.90;;;;;;5042709;28;20131;-78
2023/02/07 09:22:02;;;;;;;34.67;30.87;;;0.20;99.90;;;;;;5040247;28;20063;-78
2023/02/07 09:24:28;;;;;;;33.77;30.07;;;0.30;99.90;;;;;;4996614;28;20033;-78
2023/02/07 09:26:53;;;;;;;32.27;28.87;;;0.30;99.90;;;;;;5041030;28;20045;-78
2023/02/07 09:29:19;;;;;;;32.23;28.77;;;0.40;99.90;;;;;;5035603;28;20068;-78
2023/02/07 09:31:45;;;;;;;32.87;29.37;;;0.40;99.90;;;;;;5043671;28;20048;-78
2023/02/07 09:34:11;;;;;;;31.60;28.20;;;0.50;99.90;;;;;;5040023;28;20048;-78
2023/02/07 09:36:37;;;;;;;35.07;31.07;;;0.50;99.90;;;;;;5037591;28;20467;-78
2023/02/07 09:39:04;;;;;;;35.97;29.83;;;0.60;99.90;;;;;;5001614;28;20106;-78
2023/02/07 09:42:09;;;;;;;34.23;29.70;;;0.60;99.90;;;;;;5034071;28;20105;-79
2023/02/07 09:44:59;;;;;;;31.03;27.63;;;0.60;99.90;;;;;;5028643;28;20080;-78
2023/02/07 09:47:26;;;;;;;33.28;29.77;;;0.70;99.90;;;;;;5033805;28;20044;-78
2023/02/07 09:50:02;;;;;;;33.13;28.50;;;0.70;99.90;;;;;;5021705;28;20256;-78
2023/02/07 09:52:35;;;;;;;32.30;28.63;;;0.70;99.90;;;;;;5037078;28;20040;-78
2023/02/07 09:55:04;;;;;;;29.90;26.77;;;0.80;99.90;;;;;;5042672;28;20097;-78
2023/02/07 09:57:41;;;;;;;30.90;27.60;;;0.80;99.90;;;;;;5021731;28;20434;-78
2023/02/07 10:00:29;;;;;;;32.23;28.20;;;0.90;99.90;;;;;;5039395;28;20132;-78
2023/02/07 10:02:59;;;;;;;29.63;26.43;;;1.00;99.90;;;;;;5036123;28;20376;-78
2023/02/07 10:05:47;;;;;;;32.50;29.15;;;1.00;99.90;;;;;;5019907;28;20087;-79
2023/02/07 10:08:16;;;;;;;31.87;28.57;;;1.10;99.90;;;;;;5032823;28;21329;-78
2023/02/07 10:11:09;;;;;;;30.30;27.10;;;1.10;99.90;;;;;;5024469;28;20109;-78
2023/02/07 10:14:13;;;;;;;28.30;25.33;;;1.20;99.90;;;;;;5032677;28;20044;-78
2023/02/07 10:16:50;;;;;;;30.53;25.23;;;1.20;99.90;;;;;;5037906;28;20044;-77
2023/02/07 10:19:18;;;;;;;29.77;26.47;;;1.30;99.90;;;;;;5034044;28;20052;-77
2023/02/07 10:21:58;;;;;;;29.77;26.53;;;1.30;99.90;;;;;;5040409;28;20124;-78
2023/02/07 10:24:27;;;;;;;;;;;1.40;99.90;;;;;;5023110;28;20139;-77
2023/02/07 10:27:03;;;;;;;29.10;24.90;;;1.40;99.90;;;;;;5037357;28;19924;-77
2023/02/07 10:29:35;;;;;;;27.53;24.53;;;1.50;99.90;;;;;;5006540;28;20060;-78
2023/02/07 10:32:12;;;;;;;28.13;25.23;;;1.50;99.90;;;;;;5036816;28;20087;-77
2023/02/07 10:34:46;;;;;;;28.77;25.73;;;1.60;99.90;;;;;;5047755;28;20060;-78
2023/02/07 10:37:28;;;;;;;30.00;25.10;;;1.70;99.90;;;;;;5033230;28;20044;-77
2023/02/07 10:40:15;;;;;;;28.47;25.10;;;1.70;99.90;;;;;;5039990;28;20048;-77
2023/02/07 10:42:44;;;;;;;26.97;24.13;;;1.80;99.90;;;;;;5027006;28;20109;-78
2023/02/07 10:45:14;;;;;;;28.83;25.70;;;1.80;99.90;;;;;;5023818;28;20076;-72
2023/02/07 10:47:40;;;;;;;27.43;24.53;;;1.90;99.90;;;;;;5035487;28;20036;-73
2023/02/07 10:50:15;;;;;;;27.27;24.47;;;1.90;99.90;;;;;;5017254;28;20051;-73
2023/02/07 10:52:47;;;;;;;27.40;24.47;;;2.00;99.90;;;;;;5017567;28;20119;-73
2023/02/07 10:55:18;;;;;;;26.50;23.70;;;2.00;99.90;;;;;;5036261;28;20037;-73
2023/02/07 10:57:53;;;;;;;28.00;24.83;;;2.10;99.90;;;;;;5033457;28;20138;-73
2023/02/07 11:00:28;;;;;;;27.07;24.00;;;2.10;99.90;;;;;;5029924;28;20052;-73
2023/02/07 11:03:14;;;;;;;27.30;22.90;;;2.10;99.90;;;;;;5016559;28;20049;-75
2023/02/07 11:05:53;;;;;;;26.60;23.50;;;2.20;99.90;;;;;;5025161;28;20103;-74
2023/02/07 11:08:32;;;;;;;27.33;24.43;;;2.30;99.90;;;;;;5028702;28;20048;-74
2023/02/07 11:11:15;;;;;;;27.10;23.43;;;2.30;99.90;;;;;;5026793;28;20106;-74
2023/02/07 11:13:49;;;;;;;27.23;24.07;;;2.30;99.90;;;;;;5027052;28;20093;-74
2023/02/07 11:16:17;;;;;;;24.33;21.73;;;2.40;99.90;;;;;;5030283;28;20048;-74
2023/02/07 11:18:44;;;;;;;25.77;22.53;;;2.40;99.90;;;;;;5033026;28;20049;-74
2023/02/07 11:21:24;;;;;;;24.90;22.20;;;2.50;99.90;;;;;;5032137;28;20573;-73
2023/02/07 11:23:52;;;;;;;22.27;19.88;;;2.50;99.90;;;;;;5003570;28;20503;-74
2023/02/07 11:26:20;;;;;;;24.50;21.47;;;2.60;99.90;;;;;;5020277;28;20083;-74
2023/02/07 11:28:51;;;;;;;22.43;20.03;;;2.60;99.90;;;;;;5020867;28;21581;-73
2023/02/07 11:31:25;;;;;;;22.80;20.37;;;2.60;99.90;;;;;;5030197;28;20048;-73
2023/02/07 11:33:51;;;;;;;22.00;19.63;;;2.60;99.90;;;;;;5036603;28;20052;-78
2023/02/07 11:36:27;;;;;;;25.90;20.77;;;2.70;99.90;;;;;;5023669;28;20060;-77
2023/02/07 11:38:58;;;;;;;22.77;19.80;;;2.70;99.90;;;;;;5015378;28;20059;-77
2023/02/07 11:41:32;;;;;;;21.27;18.87;;;2.80;99.90;;;;;;5018659;28;20055;-77
2023/02/07 11:44:14;;;;;;;21.53;19.27;;;2.80;99.90;;;;;;5020195;28;20045;-77
2023/02/07 11:46:42;;;;;;;21.10;18.90;;;2.90;99.90;;;;;;5027397;28;20491;-77
2023/02/07 11:49:37;;;;;;;21.27;18.50;;;2.90;99.90;;;;;;5030818;28;20455;-77
2023/02/07 11:52:04;;;;;;;20.17;18.08;;;3.00;99.90;;;;;;5038963;28;20995;-78
2023/02/07 11:54:32;;;;;;;21.48;17.98;;;3.00;99.90;;;;;;5023746;28;20124;-77
2023/02/07 11:57:06;;;;;;;20.88;18.10;;;3.10;99.90;;;;;;5022962;28;20402;-77
2023/02/07 11:59:33;;;;;;;20.65;18.55;;;3.10;99.90;;;;;;5021647;28;20053;-78
2023/02/07 12:02:25;;;;;;;21.23;18.60;;;3.10;99.90;;;;;;5029436;28;20055;-77
2023/02/07 12:04:53;;;;;;;20.48;18.13;;;3.20;99.90;;;;;;5018709;28;20491;-77
2023/02/07 12:07:31;;;;;;;20.25;18.10;;;3.30;99.90;;;;;;5014771;28;20049;-77
2023/02/07 12:10:03;;;;;;;21.73;17.70;;;3.40;99.90;;;;;;5031902;28;20045;-77
2023/02/07 12:12:50;;;;;;;20.02;17.67;;;3.40;99.90;;;;;;5038393;28;20061;-77
2023/02/07 12:15:31;;;;;;;17.85;16.05;;;3.40;99.90;;;;;;5033033;28;20135;-77
2023/02/07 12:18:23;;;;;;;20.25;17.02;;;3.50;99.90;;;;;;5029001;28;20049;-77
2023/02/07 12:21:14;;;;;;;20.58;16.17;;;3.60;99.90;;;;;;5019973;28;20045;-77
2023/02/07 12:23:59;;;;;;;18.48;16.30;;;3.60;99.90;;;;;;5037739;28;20443;-78
2023/02/07 12:26:30;;;;;;;19.90;16.27;;;3.70;99.90;;;;;;5036276;28;20053;-78
2023/02/07 12:29:14;;;;;;;18.25;15.75;;;3.70;99.90;;;;;;5042037;28;20071;-78
2023/02/07 12:31:52;;;;;;;17.70;15.80;;;3.70;99.90;;;;;;5028667;28;20057;-78
2023/02/07 12:34:47;;;;;;;18.55;16.10;;;3.70;99.90;;;;;;5012454;28;20132;-78
2023/02/07 12:37:37;;;;;;;17.42;15.27;;;3.80;99.90;;;;;;5038065;28;20048;-78
2023/02/07 12:40:16;;;;;;;18.85;16.10;;;3.80;99.90;;;;;;5019256;28;20052;-79
2023/02/07 12:42:56;;;;;;;18.30;16.27;;;3.80;99.90;;;;;;5016106;28;20474;-78
2023/02/07 12:45:41;;;;;;;18.90;15.65;;;3.80;99.90;;;;;;5026941;28;20053;-79
2023/02/07 12:48:10;;;;;;;19.02;15.65;;;3.90;99.90;;;;;;5031366;28;20454;-79
2023/02/07 12:51:08;;;;;;;18.85;16.77;;;3.90;99.90;;;;;;5019231;28;20511;-79
2023/02/07 12:53:44;;;;;;;18.83;16.23;;;3.90;99.90;;;;;;5016685;28;20091;-79